Time;durP1;ratioP1;P1;durP2;ratioP2;P2;SDS_P1;SDS_P2;PMS_P1;PMS_P2;Temp;Humidity;BMP_temperature;BMP_pressure;BME280_temperature;BME280_humidity;BME280_pressure;Samples;Min_cycle;Max_cycle;Signal;HPM_P1;HPM_P2
2024/02/02 00:00:28;;;;;;;4.50;1.73;;;;;;;17.16;51.35;102863.84;10411972;28;20358;-60
2024/02/02 00:05:29;;;;;;;7.55;2.35;;;;;;;17.15;50.07;102866.78;10418706;28;20025;-60
2024/02/02 00:10:29;;;;;;;5.82;2.45;;;;;;;17.17;50.11;102878.91;10424310;28;20117;-59
2024/02/02 00:15:30;;;;;;;6.20;2.63;;;;;;;17.17;49.47;102872.75;10415888;28;20050;-60
2024/02/02 00:20:30;;;;;;;3.42;2.15;;;;;;;17.19;50.89;102878.69;10410128;28;20029;-60
2024/02/02 00:25:30;;;;;;;4.60;1.63;;;;;;;17.17;49.81;102859.34;10411618;28;20033;-59
2024/02/02 00:30:34;;;;;;;3.13;1.33;;;;;;;17.16;49.65;102844.28;10425840;28;20290;-61
2024/02/02 00:35:35;;;;;;;3.95;2.20;;;;;;;17.16;51.02;102838.91;10433970;28;20042;-60
2024/02/02 00:40:35;;;;;;;5.07;2.00;;;;;;;17.17;50.03;102845.94;10410393;28;20017;-59
2024/02/02 00:45:36;;;;;;;4.03;1.70;;;;;;;17.16;49.43;102842.41;10415648;28;20090;-60
2024/02/02 00:50:36;;;;;;;5.60;2.15;;;;;;;17.17;50.62;102862.84;10411438;28;20755;-58
2024/02/02 00:55:36;;;;;;;4.40;1.80;;;;;;;17.15;49.73;102854.19;10408833;28;20029;-60
2024/02/02 01:00:37;;;;;;;3.40;1.90;;;;;;;17.17;50.87;102848.63;10409722;28;20740;-59
2024/02/02 01:05:37;;;;;;;4.63;2.03;;;;;;;17.18;49.34;102829.63;10416263;28;20116;-60
2024/02/02 01:10:37;;;;;;;5.00;1.95;;;;;;;17.18;51.01;102834.16;10420607;28;20032;-60
2024/02/02 01:15:38;;;;;;;6.20;2.25;;;;;;;17.18;50.32;102826.94;10409406;28;20045;-60
2024/02/02 01:20:38;;;;;;;4.22;1.58;;;;;;;17.16;49.69;102822.84;10409003;28;20021;-60
2024/02/02 01:25:39;;;;;;;4.95;1.98;;;;;;;17.19;50.51;102806.31;10409664;28;20083;-60
2024/02/02 01:30:39;;;;;;;3.35;1.48;;;;;;;17.17;49.73;102798.50;10410619;28;20027;-60
2024/02/02 01:35:41;;;;;;;3.88;1.88;;;;;;;17.19;49.47;102800.94;10422076;28;20075;-60
2024/02/02 01:40:41;;;;;;;3.08;1.50;;;;;;;17.19;49.92;102785.66;10408359;28;20025;-60
2024/02/02 01:45:41;;;;;;;5.30;3.40;;;;;;;17.20;49.33;102775.75;10414356;28;20372;-60
2024/02/02 01:50:42;;;;;;;4.57;1.80;;;;;;;17.22;49.77;102763.75;10410122;28;20284;-60
2024/02/02 01:55:42;;;;;;;3.50;1.70;;;;;;;17.22;49.61;102763.75;10421777;28;20546;-60
2024/02/02 02:00:42;;;;;;;6.45;1.85;;;;;;;17.23;49.58;102760.00;10408135;28;20109;-61
2024/02/02 02:05:43;;;;;;;2.20;1.27;;;;;;;17.25;50.93;102759.78;10423444;28;20075;-59
2024/02/02 02:10:45;;;;;;;5.55;1.70;;;;;;;17.27;50.48;102748.81;10427423;28;20409;-59
2024/02/02 02:15:45;;;;;;;3.90;1.65;;;;;;;17.29;49.74;102742.19;10415096;28;20131;-60
2024/02/02 02:20:49;;;;;;;4.28;1.67;;;;;;;17.32;49.15;102756.97;10416079;28;20480;-60
2024/02/02 02:25:49;;;;;;;6.55;2.10;;;;;;;17.29;49.66;102746.72;10414653;28;20521;-59
2024/02/02 02:30:50;;;;;;;4.20;1.98;;;;;;;17.27;50.79;102743.44;10416960;28;20043;-59
2024/02/02 02:35:50;;;;;;;5.30;2.10;;;;;;;17.24;49.58;102750.91;10428666;28;20377;-59
2024/02/02 02:40:50;;;;;;;3.90;1.80;;;;;;;17.24;49.61;102748.22;10415114;28;20264;-60
2024/02/02 02:45:51;;;;;;;4.50;1.53;;;;;;;17.23;49.61;102730.53;10422169;28;20028;-60
2024/02/02 02:50:51;;;;;;;4.18;1.58;;;;;;;17.22;50.23;102710.13;10413869;28;20310;-60
2024/02/02 02:55:52;;;;;;;5.88;2.55;;;;;;;17.24;49.28;102707.19;10413223;28;20029;-60
2024/02/02 03:00:53;;;;;;;4.15;1.70;;;;;;;17.21;50.00;102700.47;10414827;28;20026;-60
2024/02/02 03:05:53;;;;;;;4.40;1.60;;;;;;;17.23;49.96;102700.22;10420197;28;20025;-60
2024/02/02 03:10:54;;;;;;;3.65;1.55;;;;;;;17.21;50.48;102699.66;10426779;28;20030;-60
2024/02/02 03:15:54;;;;;;;3.80;1.60;;;;;;;17.22;49.90;102686.00;10420612;28;20068;-60
2024/02/02 03:20:55;;;;;;;3.95;2.47;;;;;;;17.20;49.91;102668.53;10419343;28;20036;-60
2024/02/02 03:25:55;;;;;;;3.40;1.40;;;;;;;17.22;49.34;102663.75;10413619;28;20033;-59
2024/02/02 03:30:55;;;;;;;4.90;1.83;;;;;;;17.19;50.61;102662.34;10435606;28;20033;-59
2024/02/02 03:35:56;;;;;;;2.20;1.30;;;;;;;17.21;50.91;102651.38;10429238;28;20083;-60
2024/02/02 03:40:56;;;;;;;4.30;2.20;;;;;;;17.20;50.51;102663.16;10413169;28;20021;-60
2024/02/02 03:45:56;;;;;;;4.13;1.70;;;;;;;17.22;49.03;102650.34;10419425;28;21018;-59
2024/02/02 03:50:57;;;;;;;4.93;1.60;;;;;;;17.21;50.84;102648.72;10413218;28;20037;-60
2024/02/02 03:55:58;;;;;;;5.18;1.90;;;;;;;17.25;49.27;102652.53;10412447;28;20276;-59
2024/02/02 04:00:58;;;;;;;3.08;1.38;;;;;;;17.24;49.38;102669.66;10411380;28;20628;-60
2024/02/02 04:05:59;;;;;;;3.55;1.73;;;;;;;17.24;49.52;102659.75;10416520;28;20029;-59
2024/02/02 04:11:01;;;;;;;3.55;1.58;;;;;;;17.25;50.54;102655.22;10423398;28;20116;-60
2024/02/02 04:16:02;;;;;;;5.00;1.52;;;;;;;17.27;49.94;102657.66;10411325;28;20042;-59
2024/02/02 04:21:02;;;;;;;3.70;1.50;;;;;;;17.22;49.34;102634.25;10411601;28;20017;-61
2024/02/02 04:26:02;;;;;;;4.05;1.95;;;;;;;17.23;49.17;102646.59;10410727;28;20028;-59
2024/02/02 04:31:03;;;;;;;6.55;2.40;;;;;;;17.24;49.42;102624.91;10413620;28;20028;-60
2024/02/02 04:36:04;;;;;;;4.03;1.35;;;;;;;17.30;48.71;102646.47;10423991;28;20113;-60
2024/02/02 04:41:04;;;;;;;5.03;2.55;;;;;;;17.31;49.90;102640.88;10410563;28;20067;-60
2024/02/02 04:46:05;;;;;;;4.55;1.50;;;;;;;17.33;48.99;102627.22;10417218;28;20032;-59
2024/02/02 04:51:05;;;;;;;2.53;1.50;;;;;;;17.34;50.37;102608.19;10410290;28;20029;-60
2024/02/02 04:56:06;;;;;;;5.22;1.83;;;;;;;17.38;48.87;102598.59;10409972;28;20057;-60
2024/02/02 05:01:06;;;;;;;3.47;1.55;;;;;;;17.40;48.40;102596.50;10410201;28;20691;-60
2024/02/02 05:06:07;;;;;;;3.28;1.60;;;;;;;17.41;49.31;102587.41;10421981;28;20033;-60
2024/02/02 05:11:07;;;;;;;3.15;1.52;;;;;;;17.43;49.94;102595.22;10433778;28;20028;-60
2024/02/02 05:16:08;;;;;;;3.58;1.40;;;;;;;17.50;48.87;102580.59;10424438;28;20045;-60
2024/02/02 05:21:08;;;;;;;4.28;1.77;;;;;;;17.57;49.02;102574.25;10427273;28;20116;-59
2024/02/02 05:26:08;;;;;;;4.68;1.60;;;;;;;17.53;49.58;102568.59;10422018;28;20029;-60
2024/02/02 05:31:09;;;;;;;3.00;1.70;;;;;;;17.58;49.13;102560.59;10429811;28;20034;-59
2024/02/02 05:36:09;;;;;;;3.47;1.38;;;;;;;17.57;48.78;102564.34;10428789;28;20272;-60
2024/02/02 05:41:10;;;;;;;5.38;1.55;;;;;;;17.58;48.37;102554.44;10422288;28;20373;-60
2024/02/02 05:46:10;;;;;;;3.85;1.25;;;;;;;17.58;48.33;102557.09;10414602;28;20630;-59
2024/02/02 05:51:10;;;;;;;4.15;1.85;;;;;;;17.58;49.57;102557.09;10406299;28;20037;-59
2024/02/02 05:56:11;;;;;;;4.38;1.65;;;;;;;17.59;49.52;102564.09;10405379;28;20029;-58
2024/02/02 06:01:11;;;;;;;6.85;1.92;;;;;;;17.56;48.48;102541.25;10405816;28;20064;-58
2024/02/02 06:06:12;;;;;;;6.65;2.25;;;;;;;17.47;49.47;102554.25;10413877;28;20424;-56
2024/02/02 06:11:12;;;;;;;8.52;2.50;;;;;;;17.39;48.49;102565.38;10420792;28;20030;-57
2024/02/02 06:16:12;;;;;;;8.25;3.22;;;;;;;17.36;48.06;102570.41;10407769;28;20049;-56
2024/02/02 06:21:13;;;;;;;15.53;3.23;;;;;;;17.43;48.70;102577.25;10406467;28;20083;-56
2024/02/02 06:26:13;;;;;;;13.30;3.42;;;;;;;17.51;48.98;102573.34;10407438;28;20288;-60
2024/02/02 06:31:13;;;;;;;8.98;3.45;;;;;;;17.53;49.15;102561.34;10408056;28;20236;-58
2024/02/02 06:36:14;;;;;;;10.30;3.13;;;;;;;17.64;47.94;102569.53;10420573;28;20041;-59
2024/02/02 06:41:14;;;;;;;10.77;3.67;;;;;;;17.50;46.69;102567.16;10410378;28;20074;-60
2024/02/02 06:46:14;;;;;;;9.55;3.35;;;;;;;17.36;47.17;102579.28;10412554;28;20028;-60
2024/02/02 06:51:15;;;;;;;9.30;3.43;;;;;;;17.33;47.02;102585.13;10412200;28;20109;-58
2024/02/02 06:56:42;;;;;;;16.15;4.25;;;;;;;17.28;47.71;102574.28;10411726;28;20287;-58
2024/02/02 07:01:43;;;;;;;10.05;3.40;;;;;;;17.23;46.82;102588.44;10408565;28;20041;-59
2024/02/02 07:06:45;;;;;;;18.80;4.22;;;;;;;17.20;48.68;102570.16;10417449;28;20028;-59
2024/02/02 07:11:58;;;;;;;10.23;3.10;;;;;;;17.20;47.43;102577.38;10417884;28;20030;-60
2024/02/02 07:16:59;;;;;;;8.07;3.15;;;;;;;17.19;47.71;102568.53;10411125;28;20041;-59
2024/02/02 07:21:59;;;;;;;10.32;3.38;;;;;;;17.16;48.33;102568.19;10413049;28;20066;-59
2024/02/02 07:26:59;;;;;;;14.10;4.20;;;;;;;17.15;48.41;102572.72;10413650;28;20031;-59
2024/02/02 07:32:04;;;;;;;13.30;4.28;;;;;;;17.37;47.79;102578.22;10415372;28;20033;-59
2024/02/02 07:37:10;;;;;;;12.52;3.75;;;;;;;17.31;46.95;102576.50;10443180;28;20021;-60
2024/02/02 07:42:10;;;;;;;11.02;2.88;;;;;;;17.26;48.50;102579.09;10417134;28;20615;-55
2024/02/02 07:47:10;;;;;;;12.77;3.47;;;;;;;17.23;48.82;102576.91;10419464;28;20081;-56
2024/02/02 07:52:11;;;;;;;16.65;4.72;;;;;;;17.14;48.17;102581.00;10438621;28;20033;-57
2024/02/02 07:57:11;;;;;;;12.25;3.95;;;;;;;17.17;48.90;102573.31;10418719;28;20561;-58
2024/02/02 08:02:11;;;;;;;14.93;3.90;;;;;;;17.23;48.53;102574.22;10432809;28;20648;-58
2024/02/02 08:07:12;;;;;;;13.23;3.50;;;;;;;17.21;47.72;102561.06;10439376;28;20295;-58
2024/02/02 08:12:12;;;;;;;10.15;2.92;;;;;;;17.20;48.52;102561.31;10434237;28;20383;-58
2024/02/02 08:17:12;;;;;;;10.80;3.58;;;;;;;17.15;49.76;102553.97;10437371;28;20044;-58
2024/02/02 08:22:13;;;;;;;15.35;4.70;;;;;;;17.15;49.44;102556.66;10441131;28;20040;-58
2024/02/02 08:27:13;;;;;;;9.32;4.05;;;;;;;17.26;47.89;102552.28;10445861;28;20032;-57
2024/02/02 08:32:14;;;;;;;11.85;3.13;;;;;;;17.22;47.30;102540.44;10449721;28;20052;-56
2024/02/02 08:37:14;;;;;;;8.15;2.78;;;;;;;17.21;47.46;102546.84;10429373;28;20068;-57
2024/02/02 08:42:23;;;;;;;8.63;3.22;;;;;;;17.17;48.88;102535.78;10450818;28;20112;-58
2024/02/02 08:47:24;;;;;;;20.50;4.93;;;;;;;17.10;49.62;102528.94;10443317;28;20426;-58
2024/02/02 08:52:24;;;;;;;15.05;3.35;;;;;;;17.09;49.18;102521.97;10423230;28;20040;-58
2024/02/02 08:57:35;;;;;;;13.32;4.30;;;;;;;17.08;48.90;102512.31;10426724;28;20082;-58
2024/02/02 09:02:41;;;;;;;15.38;3.40;;;;;;;17.12;49.67;102516.13;10426095;28;20034;-57
2024/02/02 09:07:42;;;;;;;18.80;3.30;;;;;;;17.13;49.93;102531.13;10422070;28;20021;-58
2024/02/02 09:12:44;;;;;;;13.65;4.00;;;;;;;17.12;49.39;102524.16;10415542;28;20052;-58
2024/02/02 09:17:45;;;;;;;9.63;3.63;;;;;;;17.14;49.10;102525.53;10407945;28;20017;-58
2024/02/02 09:22:45;;;;;;;8.57;2.70;;;;;;;17.17;48.96;102521.59;10419251;28;20543;-57
2024/02/02 09:27:46;;;;;;;13.10;3.33;;;;;;;17.14;49.72;102535.44;10413919;28;20037;-58
2024/02/02 09:32:46;;;;;;;12.07;3.90;;;;;;;17.07;48.64;102519.53;10408393;28;21085;-58
2024/02/02 09:37:50;;;;;;;16.25;4.53;;;;;;;17.05;50.75;102526.16;10420818;28;20025;-58
2024/02/02 09:42:57;;;;;;;12.30;3.70;;;;;;;17.04;50.22;102537.94;10411258;28;20025;-57
2024/02/02 09:48:07;;;;;;;14.05;4.25;;;;;;;16.99;50.59;102538.66;10414399;28;20053;-57
2024/02/02 09:53:10;;;;;;;10.80;4.07;;;;;;;16.98;51.40;102530.88;10406708;28;20480;-56
2024/02/02 09:58:28;;;;;;;13.35;3.78;;;;;;;16.93;49.54;102519.03;10406931;28;20021;-56
2024/02/02 10:04:05;;;;;;;23.92;5.07;;;;;;;16.93;49.52;102523.56;10411739;28;20025;-58
2024/02/02 10:09:26;;;;;;;16.30;5.32;;;;;;;16.94;49.44;102519.84;10419659;28;20030;-56
2024/02/02 10:14:39;;;;;;;20.52;5.30;;;;;;;17.02;48.83;102515.94;10406332;28;20049;-59
2024/02/02 10:19:42;;;;;;;13.35;5.20;;;;;;;16.99;49.42;102532.50;10405533;28;20615;-59
2024/02/02 10:25:10;;;;;;;8.18;3.15;;;;;;;17.00;50.37;102523.41;10413497;28;20033;-58
2024/02/02 10:30:43;;;;;;;12.77;3.67;;;;;;;16.96;48.89;102520.41;10405901;28;20628;-59
2024/02/02 10:36:05;;;;;;;10.85;4.25;;;;;;;16.94;48.92;102527.88;10433703;28;20029;-57
2024/02/02 10:41:17;;;;;;;10.43;3.78;;;;;;;16.95;49.88;102524.13;10414091;28;20068;-58
2024/02/02 10:46:40;;;;;;;10.35;4.28;;;;;;;16.95;49.82;102522.28;10417880;28;20040;-58
2024/02/02 10:51:44;;;;;;;8.30;3.60;;;;;;;16.99;49.23;102519.09;10412685;28;20038;-58
2024/02/02 10:57:16;;;;;;;21.48;4.22;;;;;;;16.95;50.15;102511.56;10413396;28;20033;-56
2024/02/02 11:02:40;;;;;;;22.65;4.10;;;;;;;16.99;50.59;102497.66;10426219;28;20022;-57
2024/02/02 11:08:06;;;;;;;19.05;4.85;;;;;;;16.94;51.60;102501.88;10425653;28;20353;-57
2024/02/02 11:13:15;;;;;;;10.88;6.57;;;;;;;17.01;51.31;102499.03;10420917;28;20648;-58
2024/02/02 11:18:21;;;;;;;18.90;5.90;;;;;;;17.07;51.34;102495.41;10413513;28;20029;-57
2024/02/02 11:23:38;;;;;;;18.02;5.80;;;;;;;16.99;52.28;102493.13;10413314;28;20056;-57
2024/02/02 11:28:57;;;;;;;14.95;6.97;;;;;;;16.95;51.31;102498.16;10426156;28;20595;-57
2024/02/02 11:34:13;;;;;;;22.10;6.80;;;;;;;16.95;52.12;102497.34;10459578;28;20144;-57
2024/02/02 11:39:20;;;;;;;15.98;6.60;;;;;;;16.90;51.66;102487.31;10412184;28;20025;-56
2024/02/02 11:44:21;;;;;;;18.05;7.07;;;;;;;16.94;51.35;102482.31;10417851;28;20040;-57
2024/02/02 11:49:29;;;;;;;14.43;6.07;;;;;;;16.97;50.74;102489.06;10430926;28;20040;-57
2024/02/02 11:54:49;;;;;;;9.17;5.67;;;;;;;16.99;50.74;102486.94;10428545;28;20484;-57
2024/02/02 11:59:51;;;;;;;12.52;5.28;;;;;;;16.97;52.38;102491.75;10439479;28;20021;-58
2024/02/02 12:05:13;;;;;;;12.93;5.45;;;;;;;16.93;50.81;102481.50;10428679;28;20462;-58
2024/02/02 12:10:20;;;;;;;12.15;5.60;;;;;;;16.97;50.33;102478.34;10425841;28;20029;-56
2024/02/02 12:15:21;;;;;;;11.30;4.72;;;;;;;17.00;51.88;102459.91;10410338;28;20524;-57
2024/02/02 12:20:22;;;;;;;16.40;6.20;;;;;;;16.94;51.49;102463.56;10408952;28;20025;-56
2024/02/02 12:25:24;;;;;;;12.02;5.38;;;;;;;16.95;50.80;102441.06;10422077;28;20030;-58
2024/02/02 12:30:25;;;;;;;12.38;4.75;;;;;;;16.94;52.16;102442.13;10424849;28;20036;-57
2024/02/02 12:35:25;;;;;;;8.80;4.88;;;;;;;16.93;51.99;102437.81;10418336;28;20381;-55
2024/02/02 12:40:26;;;;;;;8.77;4.20;;;;;;;16.90;51.79;102440.97;10408090;28;20021;-56
2024/02/02 12:45:27;;;;;;;14.40;5.00;;;;;;;16.92;53.37;102441.53;10410062;28;20025;-57
2024/02/02 12:50:28;;;;;;;9.52;4.22;;;;;;;16.98;52.37;102445.94;10424396;28;20025;-56
2024/02/02 12:55:28;;;;;;;9.18;4.70;;;;;;;16.97;51.02;102425.56;10408650;28;20013;-56
2024/02/02 13:00:28;;;;;;;16.05;5.30;;;;;;;16.92;52.08;102445.03;10415498;28;20181;-56
2024/02/02 13:05:29;;;;;;;9.60;5.00;;;;;;;16.93;51.84;102445.88;10414033;28;20029;-56
2024/02/02 13:10:47;;;;;;;10.57;5.88;;;;;;;16.92;50.83;102423.59;10418545;28;20044;-56
2024/02/02 13:15:47;;;;;;;12.00;5.05;;;;;;;16.88;52.36;102413.59;10367354;28;1149837;-58
2024/02/02 13:20:51;;;;;;;10.18;5.07;;;;;;;16.85;52.77;102398.03;10408521;28;20095;-53
2024/02/02 13:25:53;;;;;;;12.20;6.03;;;;;;;16.87;51.85;102395.91;10408512;28;20036;-57
2024/02/02 13:30:59;;;;;;;7.78;4.90;;;;;;;16.85;53.10;102398.84;10411934;28;20337;-57
2024/02/02 13:36:02;;;;;;;14.90;6.07;;;;;;;16.93;52.95;102393.09;10408315;28;20021;-57
2024/02/02 13:41:04;;;;;;;33.28;7.97;;;;;;;17.03;51.61;102378.19;10408363;28;20519;-56
2024/02/02 13:46:07;;;;;;;57.20;14.57;;;;;;;17.05;51.55;102382.28;10414220;28;20074;-57
2024/02/02 13:51:09;;;;;;;52.17;12.45;;;;;;;17.15;51.99;102376.25;10407266;28;20022;-56
2024/02/02 13:56:12;;;;;;;42.38;11.38;;;;;;;17.12;52.33;102369.50;10407617;28;20025;-57
2024/02/02 14:01:20;;;;;;;41.58;11.45;;;;;;;17.13;51.95;102363.09;10406966;28;20029;-57
2024/02/02 14:06:21;;;;;;;38.85;11.10;;;;;;;17.09;52.96;102342.41;10421905;28;20520;-56
2024/02/02 14:11:26;;;;;;;38.80;10.75;;;;;;;17.10;52.91;102349.38;10424597;28;20499;-57
2024/02/02 14:16:28;;;;;;;31.92;8.98;;;;;;;17.04;52.16;102343.13;10407625;28;20382;-56
2024/02/02 14:21:30;;;;;;;35.03;10.38;;;;;;;17.04;52.78;102353.03;10420678;28;20451;-54
2024/02/02 14:26:30;;;;;;;29.70;8.77;;;;;;;17.00;53.84;102352.72;10408845;28;20018;-55
2024/02/02 14:31:30;;;;;;;25.80;9.10;;;;;;;17.05;52.22;102355.50;10408527;28;20033;-57
2024/02/02 14:36:31;;;;;;;22.75;8.65;;;;;;;17.05;52.78;102352.81;10406266;28;20500;-56
2024/02/02 14:41:31;;;;;;;25.98;10.43;;;;;;;17.08;53.32;102346.13;10406248;28;20102;-56
2024/02/02 14:46:33;;;;;;;24.52;8.90;;;;;;;17.06;52.83;102350.94;10412753;28;20033;-56
2024/02/02 14:51:33;;;;;;;20.30;7.10;;;;;;;17.08;51.98;102335.41;10405686;28;20030;-55
2024/02/02 14:56:36;;;;;;;21.33;8.60;;;;;;;17.07;51.77;102344.53;10420090;28;20459;-57
2024/02/02 15:01:37;;;;;;;24.58;7.63;;;;;;;17.00;51.96;102338.50;10419838;28;20075;-56
2024/02/02 15:06:38;;;;;;;14.85;6.50;;;;;;;16.99;52.50;102335.00;10446867;28;20035;-56
2024/02/02 15:11:42;;;;;;;18.23;7.25;;;;;;;16.92;53.47;102334.34;10437070;28;20025;-56
2024/02/02 15:16:42;;;;;;;18.08;6.57;;;;;;;16.93;53.31;102330.66;10434771;28;20068;-56
2024/02/02 15:21:43;;;;;;;14.85;6.30;;;;;;;16.98;51.75;102341.44;10429861;28;20063;-55
2024/02/02 15:26:44;;;;;;;14.63;6.32;;;;;;;17.04;51.84;102339.63;10438440;28;20050;-57
2024/02/02 15:31:44;;;;;;;15.77;5.85;;;;;;;17.05;53.84;102349.28;10435687;28;20017;-56
2024/02/02 15:36:45;;;;;;;12.23;5.28;;;;;;;17.06;52.69;102332.19;10431898;28;20032;-57
2024/02/02 15:41:45;;;;;;;16.52;5.13;;;;;;;17.06;52.35;102334.84;10426573;28;20469;-55
2024/02/02 15:46:46;;;;;;;15.80;5.13;;;;;;;17.04;54.16;102336.94;10446465;28;20025;-56
2024/02/02 15:51:47;;;;;;;10.68;3.90;;;;;;;17.06;52.05;102337.53;10433306;28;20033;-57
2024/02/02 15:56:47;;;;;;;13.20;4.90;;;;;;;17.06;52.39;102340.22;10415816;28;20041;-56
2024/02/02 16:01:48;;;;;;;13.57;4.03;;;;;;;17.01;53.76;102340.94;10421726;28;20401;-56
2024/02/02 16:07:00;;;;;;;8.63;3.65;;;;;;;16.98;54.14;102345.97;10427673;28;20027;-58
2024/02/02 16:12:01;;;;;;;16.42;5.05;;;;;;;16.99;54.39;102344.91;10423573;28;20415;-57
2024/02/02 16:17:01;;;;;;;7.97;3.53;;;;;;;17.06;52.75;102326.81;10404770;28;20041;-58
2024/02/02 16:22:02;;;;;;;7.40;3.28;;;;;;;17.08;53.62;102332.75;10409819;28;20037;-58
2024/02/02 16:27:03;;;;;;;10.73;3.55;;;;;;;17.26;52.13;102345.84;10411505;28;20071;-59
2024/02/02 16:32:03;;;;;;;7.18;3.47;;;;;;;17.47;52.60;102345.06;10410264;28;20029;-59
2024/02/02 16:37:04;;;;;;;13.55;4.78;;;;;;;17.62;52.48;102343.66;10416499;28;20368;-58
2024/02/02 16:42:04;;;;;;;7.65;3.95;;;;;;;17.65;54.58;102354.72;10432609;28;20029;-56
2024/02/02 16:47:05;;;;;;;9.80;4.50;;;;;;;17.71;56.39;102360.97;10442795;28;20159;-55
2024/02/02 16:52:05;;;;;;;11.48;3.95;;;;;;;17.85;54.30;102353.34;10434239;28;20020;-60
2024/02/02 16:57:06;;;;;;;13.75;4.70;;;;;;;17.96;55.96;102353.22;10448576;28;20145;-56
2024/02/02 17:02:06;;;;;;;12.77;4.07;;;;;;;17.88;54.59;102337.59;10451273;28;20032;-57
2024/02/02 17:07:06;;;;;;;13.40;4.20;;;;;;;17.72;55.78;102344.63;10421358;28;20035;-58
2024/02/02 17:12:07;;;;;;;14.38;3.85;;;;;;;17.61;55.10;102344.72;10417994;28;20087;-56
2024/02/02 17:17:08;;;;;;;12.50;5.15;;;;;;;17.50;56.08;102341.91;10415617;28;20308;-56
2024/02/02 17:22:08;;;;;;;26.92;5.53;;;;;;;17.46;55.47;102334.59;10427690;28;20025;-57
2024/02/02 17:27:08;;;;;;;17.77;5.30;;;;;;;17.35;54.93;102346.25;10423972;28;20051;-57
2024/02/02 17:32:09;;;;;;;15.75;3.80;;;;;;;17.30;56.16;102348.88;10409893;28;20460;-57
2024/02/02 17:37:09;;;;;;;20.58;6.32;;;;;;;17.33;55.04;102354.53;10425171;28;20512;-57
2024/02/02 17:42:10;;;;;;;13.68;4.75;;;;;;;17.32;54.82;102369.00;10420442;28;20425;-57
2024/02/02 17:47:10;;;;;;;19.50;4.05;;;;;;;17.29;54.61;102372.19;10410610;28;20273;-57
2024/02/02 17:52:11;;;;;;;12.88;4.40;;;;;;;17.24;55.75;102370.22;10407099;28;20025;-57
2024/02/02 17:57:12;;;;;;;13.15;4.45;;;;;;;17.16;55.05;102378.69;10431116;28;20033;-56
2024/02/02 18:02:12;;;;;;;16.30;4.22;;;;;;;17.15;55.73;102390.47;10423180;28;20025;-57
2024/02/02 18:07:13;;;;;;;14.40;4.82;;;;;;;17.11;55.75;102386.66;10437676;28;20090;-57
2024/02/02 18:12:13;;;;;;;15.93;3.67;;;;;;;17.06;55.10;102385.78;10436397;28;20477;-56
2024/02/02 18:17:16;;;;;;;11.93;3.60;;;;;;;17.06;54.34;102386.59;10419323;28;20087;-57
2024/02/02 18:22:17;;;;;;;11.82;3.78;;;;;;;17.05;55.43;102393.00;10404842;28;20337;-56
2024/02/02 18:27:17;;;;;;;8.02;2.88;;;;;;;17.08;55.14;102405.09;10405141;28;20021;-58
2024/02/02 18:32:19;;;;;;;9.52;3.15;;;;;;;17.07;54.80;102401.59;10410538;28;20476;-57
2024/02/02 18:37:20;;;;;;;7.82;3.20;;;;;;;17.09;54.50;102398.69;10408248;28;20017;-58
2024/02/02 18:42:20;;;;;;;7.05;3.35;;;;;;;17.12;53.01;102392.81;10417977;28;20032;-57
2024/02/02 18:47:20;;;;;;;15.32;3.35;;;;;;;17.13;53.50;102397.94;10426977;28;20108;-58
2024/02/02 18:52:23;;;;;;;5.47;2.90;;;;;;;17.19;52.95;102407.69;10414428;28;20033;-57
2024/02/02 18:57:23;;;;;;;7.47;3.10;;;;;;;17.22;53.16;102403.72;10427363;28;20494;-57
2024/02/02 19:02:24;;;;;;;9.88;3.55;;;;;;;17.26;52.99;102407.50;10418883;28;20108;-58
2024/02/02 19:07:25;;;;;;;15.45;4.30;;;;;;;17.24;53.01;102401.59;10420724;28;20056;-58
2024/02/02 19:12:25;;;;;;;5.80;2.95;;;;;;;17.28;53.22;102399.22;10416877;28;20021;-57
2024/02/02 19:17:26;;;;;;;10.48;2.97;;;;;;;17.24;53.26;102394.34;10415854;28;20481;-57
2024/02/02 19:22:26;;;;;;;6.60;3.13;;;;;;;17.23;52.99;102406.13;10413977;28;20082;-56
2024/02/02 19:27:26;;;;;;;10.60;4.30;;;;;;;17.21;54.57;102413.63;10411820;28;20040;-58
2024/02/02 19:32:27;;;;;;;11.13;3.58;;;;;;;17.24;53.23;102410.44;10413921;28;20120;-57
2024/02/02 19:37:27;;;;;;;6.07;3.10;;;;;;;17.22;53.97;102406.38;10426991;28;20017;-57
2024/02/02 19:42:28;;;;;;;8.40;3.72;;;;;;;17.21;53.67;102420.84;10440971;28;20033;-57
2024/02/02 19:47:28;;;;;;;8.82;3.53;;;;;;;17.18;53.16;102418.66;10451222;28;20033;-57
2024/02/02 19:52:28;;;;;;;7.80;3.47;;;;;;;17.16;53.99;102429.59;10450778;28;20021;-57
2024/02/02 19:57:29;;;;;;;7.22;3.53;;;;;;;17.15;54.10;102427.97;10450655;28;20086;-56
2024/02/02 20:02:29;;;;;;;5.35;2.90;;;;;;;17.17;53.61;102438.50;10449380;28;20569;-56
2024/02/02 20:07:29;;;;;;;10.40;3.55;;;;;;;17.17;53.94;102433.13;10420131;28;20423;-57
2024/02/02 20:12:30;;;;;;;7.55;3.38;;;;;;;17.12;53.33;102420.44;10425330;28;20025;-57
2024/02/02 20:17:30;;;;;;;10.27;4.00;;;;;;;17.18;53.80;102408.75;10430913;28;20033;-58
2024/02/02 20:22:31;;;;;;;6.18;3.08;;;;;;;17.16;52.99;102421.56;10444317;28;20116;-57
2024/02/02 20:27:32;;;;;;;7.88;4.50;;;;;;;17.16;54.61;102424.25;10431959;28;20423;-57
2024/02/02 20:32:33;;;;;;;6.78;3.58;;;;;;;17.22;53.47;102425.16;10431509;28;20039;-57
2024/02/02 20:37:33;;;;;;;8.30;3.58;;;;;;;17.19;54.28;102415.75;10448538;28;20020;-58
2024/02/02 20:42:34;;;;;;;6.47;3.83;;;;;;;17.20;52.90;102430.75;10434336;28;20021;-57
2024/02/02 20:47:34;;;;;;;6.78;3.55;;;;;;;17.23;52.48;102418.72;10445460;28;20036;-57
2024/02/02 20:52:34;;;;;;;6.82;3.58;;;;;;;17.21;52.74;102413.63;10452561;28;20112;-57
2024/02/02 20:57:35;;;;;;;6.53;3.05;;;;;;;17.27;53.98;102422.53;10452258;28;20029;-57
2024/02/02 21:02:35;;;;;;;5.55;3.63;;;;;;;17.25;52.24;102417.44;10452243;28;20056;-57
2024/02/02 21:07:35;;;;;;;7.32;3.33;;;;;;;17.24;53.17;102420.34;10424625;28;20025;-58
2024/02/02 21:12:36;;;;;;;22.52;4.05;;;;;;;17.22;52.63;102409.88;10431513;28;20112;-57
2024/02/02 21:17:44;;;;;;;8.30;3.47;;;;;;;17.20;52.79;102403.16;10410038;28;20045;-57
2024/02/02 21:22:44;;;;;;;6.72;3.30;;;;;;;17.25;53.33;102405.88;10409137;28;20048;-57
2024/02/02 21:27:45;;;;;;;4.47;3.05;;;;;;;17.23;52.38;102403.47;10410917;28;20033;-58
2024/02/02 21:32:45;;;;;;;5.43;2.90;;;;;;;17.22;52.50;102395.66;10435484;28;20116;-57
2024/02/02 21:37:46;;;;;;;4.80;3.05;;;;;;;17.23;52.52;102403.47;10424270;28;20025;-57
2024/02/02 21:42:47;;;;;;;4.28;2.80;;;;;;;17.24;52.25;102412.31;10409611;28;20116;-57
2024/02/02 21:47:47;;;;;;;5.68;3.05;;;;;;;17.24;52.59;102412.31;10414214;28;20342;-57
2024/02/02 21:52:48;;;;;;;5.13;3.38;;;;;;;17.23;52.44;102399.97;10409530;28;20021;-57
2024/02/02 21:57:48;;;;;;;4.85;3.10;;;;;;;17.27;52.14;102392.22;10409498;28;20460;-58
2024/02/02 22:02:48;;;;;;;4.30;2.78;;;;;;;17.30;52.17;102410.53;10422406;28;20029;-58
2024/02/02 22:07:49;;;;;;;5.30;2.70;;;;;;;17.28;53.22;102394.66;10422565;28;20027;-57
2024/02/02 22:12:49;;;;;;;6.10;2.77;;;;;;;17.25;51.69;102395.16;10441130;28;20026;-57
2024/02/02 22:17:49;;;;;;;5.03;3.37;;;;;;;17.25;52.30;102406.69;10410069;28;20268;-57
2024/02/02 22:22:51;;;;;;;5.05;3.13;;;;;;;17.29;53.17;102400.88;10417186;28;20710;-57
2024/02/02 22:27:51;;;;;;;7.13;4.00;;;;;;;17.28;53.19;102392.00;10417686;28;20124;-57
2024/02/02 22:32:52;;;;;;;6.35;3.13;;;;;;;17.27;52.30;102376.97;10417067;28;20112;-58
2024/02/02 22:37:52;;;;;;;3.83;2.78;;;;;;;17.27;53.30;102397.59;10428929;28;20037;-57
2024/02/02 22:42:53;;;;;;;4.65;3.35;;;;;;;17.29;53.06;102414.28;10415161;28;20033;-57
2024/02/02 22:47:53;;;;;;;5.05;3.40;;;;;;;17.27;52.11;102395.72;10420274;28;20025;-58
2024/02/02 22:52:53;;;;;;;5.07;2.67;;;;;;;17.27;52.98;102398.41;10415863;28;20119;-58
2024/02/02 22:57:54;;;;;;;5.13;2.95;;;;;;;17.28;51.50;102397.34;10415525;28;20025;-58
2024/02/02 23:02:54;;;;;;;7.43;3.15;;;;;;;17.27;51.79;102385.00;10415716;28;20017;-58